Aviation Digital Data Service (ADDS)

Output produced by METARs form (2005 UTC 13 November 2019)
found at http://www.aviationweather.gov/metar/data/
 
METAR text: OMDB 131900Z 10005KT 060V120 CAVOK 24/11 Q1016 NOSIG
Conditions at: OMDB (DUBAI INTL AIRPO, AE) observed 1900 UTC 13 November 2019
Temperature: 24.0°C (75°F)
Dewpoint: 11.0°C (52°F) [RH = 44%]
Pressure (altimeter): 30.00 inches Hg (1016.0 mb)
Winds: from the E (100 degrees) at 6 MPH (5 knots; 2.6 m/s)
Visibility: 6 or more miles (10+ km)
Ceiling: ceiling and visibility are OK
Clouds: unknown
Weather: no significant weather observed at this time

METAR text: OMDB 131800Z 09005KT CAVOK 25/11 Q1016 NOSIG
Conditions at: OMDB (DUBAI INTL AIRPO, AE) observed 1800 UTC 13 November 2019
Temperature: 25.0°C (77°F)
Dewpoint: 11.0°C (52°F) [RH = 41%]
Pressure (altimeter): 30.00 inches Hg (1016.0 mb)
Winds: from the E (90 degrees) at 6 MPH (5 knots; 2.6 m/s)
Visibility: 6 or more miles (10+ km)
Ceiling: ceiling and visibility are OK
Clouds: unknown
Weather: no significant weather observed at this time

METAR text: OMDB 131700Z 06005KT 010V120 CAVOK 26/09 Q1016 NOSIG
Conditions at: OMDB (DUBAI INTL AIRPO, AE) observed 1700 UTC 13 November 2019
Temperature: 26.0°C (79°F)
Dewpoint: 9.0°C (48°F) [RH = 34%]
Pressure (altimeter): 30.00 inches Hg (1016.0 mb)
Winds: from the ENE (60 degrees) at 6 MPH (5 knots; 2.6 m/s)
Visibility: 6 or more miles (10+ km)
Ceiling: ceiling and visibility are OK
Clouds: unknown
Weather: no significant weather observed at this time

METAR text: OMDB 131600Z 06005KT 040V100 CAVOK 26/10 Q1016 NOSIG
Conditions at: OMDB (DUBAI INTL AIRPO, AE) observed 1600 UTC 13 November 2019
Temperature: 26.0°C (79°F)
Dewpoint: 10.0°C (50°F) [RH = 37%]
Pressure (altimeter): 30.00 inches Hg (1016.0 mb)
Winds: from the ENE (60 degrees) at 6 MPH (5 knots; 2.6 m/s)
Visibility: 6 or more miles (10+ km)
Ceiling: ceiling and visibility are OK
Clouds: unknown
Weather: no significant weather observed at this time

METAR text: OMDB 131500Z 03008KT 010V070 CAVOK 27/10 Q1015 NOSIG
Conditions at: OMDB (DUBAI INTL AIRPO, AE) observed 1500 UTC 13 November 2019
Temperature: 27.0°C (81°F)
Dewpoint: 10.0°C (50°F) [RH = 34%]
Pressure (altimeter): 29.97 inches Hg (1015.0 mb)
Winds: from the NNE (30 degrees) at 9 MPH (8 knots; 4.1 m/s)
Visibility: 6 or more miles (10+ km)
Ceiling: ceiling and visibility are OK
Clouds: unknown
Weather: no significant weather observed at this time

METAR text: OMDB 131400Z 03010KT CAVOK 27/10 Q1015 NOSIG
Conditions at: OMDB (DUBAI INTL AIRPO, AE) observed 1400 UTC 13 November 2019
Temperature: 27.0°C (81°F)
Dewpoint: 10.0°C (50°F) [RH = 34%]
Pressure (altimeter): 29.97 inches Hg (1015.0 mb)
Winds: from the NNE (30 degrees) at 12 MPH (10 knots; 5.1 m/s)
Visibility: 6 or more miles (10+ km)
Ceiling: ceiling and visibility are OK
Clouds: unknown
Weather: no significant weather observed at this time

METAR text: OMDB 131300Z 02010KT CAVOK 28/06 Q1014 NOSIG
Conditions at: OMDB (DUBAI INTL AIRPO, AE) observed 1300 UTC 13 November 2019
Temperature: 28.0°C (82°F)
Dewpoint: 6.0°C (43°F) [RH = 25%]
Pressure (altimeter): 29.94 inches Hg (1014.0 mb)
Winds: from the NNE (20 degrees) at 12 MPH (10 knots; 5.1 m/s)
Visibility: 6 or more miles (10+ km)
Ceiling: ceiling and visibility are OK
Clouds: unknown
Weather: no significant weather observed at this time

METAR text: OMDB 131200Z 35011KT 320V030 9999 FEW030 29/06 Q1014 NOSIG
Conditions at: OMDB (DUBAI INTL AIRPO, AE) observed 1200 UTC 13 November 2019
Temperature: 29.0°C (84°F)
Dewpoint: 6.0°C (43°F) [RH = 23%]
Pressure (altimeter): 29.94 inches Hg (1014.0 mb)
Winds: from the N (350 degrees) at 13 MPH (11 knots; 5.7 m/s)
Visibility: 6 or more miles (10+ km)
Ceiling: at least 12,000 feet AGL
Clouds: few clouds at 3000 feet AGL
Weather: no significant weather observed at this time

METAR text: OMDB 131100Z VRB03KT 9999 FEW030 30/M05 Q1014 BECMG 35012KT
Conditions at: OMDB (DUBAI INTL AIRPO, AE) observed 1100 UTC 13 November 2019
Temperature: 30.0°C (86°F)
Dewpoint: -5.0°C (23°F) [RH = 10%]
Pressure (altimeter): 29.94 inches Hg (1014.0 mb)
Winds: variable direction winds at 3 MPH (3 knots; 1.5 m/s)
Visibility: 6 or more miles (10+ km)
Ceiling: at least 12,000 feet AGL
Clouds: few clouds at 3000 feet AGL
Weather: no significant weather observed at this time

METAR text: OMDB 131000Z VRB04KT 9999 FEW030 30/M03 Q1014 BECMG 35012KT
Conditions at: OMDB (DUBAI INTL AIRPO, AE) observed 1000 UTC 13 November 2019
Temperature: 30.0°C (86°F)
Dewpoint: -3.0°C (27°F) [RH = 12%]
Pressure (altimeter): 29.94 inches Hg (1014.0 mb)
Winds: variable direction winds at 5 MPH (4 knots; 2.1 m/s)
Visibility: 6 or more miles (10+ km)
Ceiling: at least 12,000 feet AGL
Clouds: few clouds at 3000 feet AGL
Weather: no significant weather observed at this time

METAR text: OMDB 130900Z 13007KT 070V180 9999 FEW030 29/M03 Q1015 BECMG 35012KT
Conditions at: OMDB (DUBAI INTL AIRPO, AE) observed 0900 UTC 13 November 2019
Temperature: 29.0°C (84°F)
Dewpoint: -3.0°C (27°F) [RH = 12%]
Pressure (altimeter): 29.97 inches Hg (1015.0 mb)
Winds: from the SE (130 degrees) at 8 MPH (7 knots; 3.6 m/s)
Visibility: 6 or more miles (10+ km)
Ceiling: at least 12,000 feet AGL
Clouds: few clouds at 3000 feet AGL
Weather: no significant weather observed at this time

METAR text: OMDB 130800Z 14006KT 090V180 CAVOK 28/04 Q1016 BECMG 35012KT
Conditions at: OMDB (DUBAI INTL AIRPO, AE) observed 0800 UTC 13 November 2019
Temperature: 28.0°C (82°F)
Dewpoint: 4.0°C (39°F) [RH = 22%]
Pressure (altimeter): 30.00 inches Hg (1016.0 mb)
Winds: from the SE (140 degrees) at 7 MPH (6 knots; 3.1 m/s)
Visibility: 6 or more miles (10+ km)
Ceiling: ceiling and visibility are OK
Clouds: unknown
Weather: no significant weather observed at this time

METAR text: OMDB 130700Z 10008KT 010V120 CAVOK 28/04 Q1017 NOSIG
Conditions at: OMDB (DUBAI INTL AIRPO, AE) observed 0700 UTC 13 November 2019
Temperature: 28.0°C (82°F)
Dewpoint: 4.0°C (39°F) [RH = 22%]
Pressure (altimeter): 30.03 inches Hg (1017.0 mb)
Winds: from the E (100 degrees) at 9 MPH (8 knots; 4.1 m/s)
Visibility: 6 or more miles (10+ km)
Ceiling: ceiling and visibility are OK
Clouds: unknown
Weather: no significant weather observed at this time

METAR text: OMDB 130600Z 08005KT 040V110 CAVOK 27/06 Q1017 NOSIG
Conditions at: OMDB (DUBAI INTL AIRPO, AE) observed 0600 UTC 13 November 2019
Temperature: 27.0°C (81°F)
Dewpoint: 6.0°C (43°F) [RH = 26%]
Pressure (altimeter): 30.03 inches Hg (1017.0 mb)
Winds: from the E (80 degrees) at 6 MPH (5 knots; 2.6 m/s)
Visibility: 6 or more miles (10+ km)
Ceiling: ceiling and visibility are OK
Clouds: unknown
Weather: no significant weather observed at this time

METAR text: OMDB 130500Z 10006KT 050V120 CAVOK 25/07 Q1017 NOSIG
Conditions at: OMDB (DUBAI INTL AIRPO, AE) observed 0500 UTC 13 November 2019
Temperature: 25.0°C (77°F)
Dewpoint: 7.0°C (45°F) [RH = 32%]
Pressure (altimeter): 30.03 inches Hg (1017.0 mb)
Winds: from the E (100 degrees) at 7 MPH (6 knots; 3.1 m/s)
Visibility: 6 or more miles (10+ km)
Ceiling: ceiling and visibility are OK
Clouds: unknown
Weather: no significant weather observed at this time

METAR text: OMDB 130400Z 11004KT CAVOK 22/08 Q1016 NOSIG
Conditions at: OMDB (DUBAI INTL AIRPO, AE) observed 0400 UTC 13 November 2019
Temperature: 22.0°C (72°F)
Dewpoint: 8.0°C (46°F) [RH = 41%]
Pressure (altimeter): 30.00 inches Hg (1016.0 mb)
Winds: from the ESE (110 degrees) at 5 MPH (4 knots; 2.1 m/s)
Visibility: 6 or more miles (10+ km)
Ceiling: ceiling and visibility are OK
Clouds: unknown
Weather: no significant weather observed at this time

METAR text: OMDB 130300Z 10005KT CAVOK 20/09 Q1016 NOSIG
Conditions at: OMDB (DUBAI INTL AIRPO, AE) observed 0300 UTC 13 November 2019
Temperature: 20.0°C (68°F)
Dewpoint: 9.0°C (48°F) [RH = 49%]
Pressure (altimeter): 30.00 inches Hg (1016.0 mb)
Winds: from the E (100 degrees) at 6 MPH (5 knots; 2.6 m/s)
Visibility: 6 or more miles (10+ km)
Ceiling: ceiling and visibility are OK
Clouds: unknown
Weather: no significant weather observed at this time

METAR text: OMDB 130200Z 17003KT 110V220 CAVOK 21/10 Q1015 NOSIG
Conditions at: OMDB (DUBAI INTL AIRPO, AE) observed 0200 UTC 13 November 2019
Temperature: 21.0°C (70°F)
Dewpoint: 10.0°C (50°F) [RH = 49%]
Pressure (altimeter): 29.97 inches Hg (1015.0 mb)
Winds: from the S (170 degrees) at 3 MPH (3 knots; 1.5 m/s)
Visibility: 6 or more miles (10+ km)
Ceiling: ceiling and visibility are OK
Clouds: unknown
Weather: no significant weather observed at this time

METAR text: OMDB 130100Z 10005KT 070V130 CAVOK 21/09 Q1015 NOSIG
Conditions at: OMDB (DUBAI INTL AIRPO, AE) observed 0100 UTC 13 November 2019
Temperature: 21.0°C (70°F)
Dewpoint: 9.0°C (48°F) [RH = 46%]
Pressure (altimeter): 29.97 inches Hg (1015.0 mb)
Winds: from the E (100 degrees) at 6 MPH (5 knots; 2.6 m/s)
Visibility: 6 or more miles (10+ km)
Ceiling: ceiling and visibility are OK
Clouds: unknown
Weather: no significant weather observed at this time

METAR text: OMDB 130000Z 15002KT CAVOK 22/10 Q1015 NOSIG
Conditions at: OMDB (DUBAI INTL AIRPO, AE) observed 0000 UTC 13 November 2019
Temperature: 22.0°C (72°F)
Dewpoint: 10.0°C (50°F) [RH = 46%]
Pressure (altimeter): 29.97 inches Hg (1015.0 mb)
Winds: from the SSE (150 degrees) at 2 MPH (2 knots; 1.0 m/s)
Visibility: 6 or more miles (10+ km)
Ceiling: ceiling and visibility are OK
Clouds: unknown
Weather: no significant weather observed at this time

METAR text: OMDB 122300Z 16003KT CAVOK 22/10 Q1015 NOSIG
Conditions at: OMDB (DUBAI INTL AIRPO, AE) observed 2300 UTC 12 November 2019
Temperature: 22.0°C (72°F)
Dewpoint: 10.0°C (50°F) [RH = 46%]
Pressure (altimeter): 29.97 inches Hg (1015.0 mb)
Winds: from the SSE (160 degrees) at 3 MPH (3 knots; 1.5 m/s)
Visibility: 6 or more miles (10+ km)
Ceiling: ceiling and visibility are OK
Clouds: unknown
Weather: no significant weather observed at this time

METAR text: OMDB 122200Z 10003KT CAVOK 22/11 Q1015 NOSIG
Conditions at: OMDB (DUBAI INTL AIRPO, AE) observed 2200 UTC 12 November 2019
Temperature: 22.0°C (72°F)
Dewpoint: 11.0°C (52°F) [RH = 50%]
Pressure (altimeter): 29.97 inches Hg (1015.0 mb)
Winds: from the E (100 degrees) at 3 MPH (3 knots; 1.5 m/s)
Visibility: 6 or more miles (10+ km)
Ceiling: ceiling and visibility are OK
Clouds: unknown
Weather: no significant weather observed at this time

METAR text: OMDB 122100Z 10005KT CAVOK 23/10 Q1015 NOSIG
Conditions at: OMDB (DUBAI INTL AIRPO, AE) observed 2100 UTC 12 November 2019
Temperature: 23.0°C (73°F)
Dewpoint: 10.0°C (50°F) [RH = 44%]
Pressure (altimeter): 29.97 inches Hg (1015.0 mb)
Winds: from the E (100 degrees) at 6 MPH (5 knots; 2.6 m/s)
Visibility: 6 or more miles (10+ km)
Ceiling: ceiling and visibility are OK
Clouds: unknown
Weather: no significant weather observed at this time

METAR text: OMDB 122000Z 10004KT 070V130 CAVOK 24/09 Q1015 NOSIG
Conditions at: OMDB (DUBAI INTL AIRPO, AE) observed 2000 UTC 12 November 2019
Temperature: 24.0°C (75°F)
Dewpoint: 9.0°C (48°F) [RH = 38%]
Pressure (altimeter): 29.97 inches Hg (1015.0 mb)
Winds: from the E (100 degrees) at 5 MPH (4 knots; 2.1 m/s)
Visibility: 6 or more miles (10+ km)
Ceiling: ceiling and visibility are OK
Clouds: unknown
Weather: no significant weather observed at this time

METAR text: OMDB 121900Z 09004KT 050V130 CAVOK 25/10 Q1015 NOSIG
Conditions at: OMDB (DUBAI INTL AIRPO, AE) observed 1900 UTC 12 November 2019
Temperature: 25.0°C (77°F)
Dewpoint: 10.0°C (50°F) [RH = 39%]
Pressure (altimeter): 29.97 inches Hg (1015.0 mb)
Winds: from the E (90 degrees) at 5 MPH (4 knots; 2.1 m/s)
Visibility: 6 or more miles (10+ km)
Ceiling: ceiling and visibility are OK
Clouds: unknown
Weather: no significant weather observed at this time

METAR text: OMDB 121800Z 10004KT 070V130 CAVOK 25/12 Q1016 NOSIG
Conditions at: OMDB (DUBAI INTL AIRPO, AE) observed 1800 UTC 12 November 2019
Temperature: 25.0°C (77°F)
Dewpoint: 12.0°C (54°F) [RH = 44%]
Pressure (altimeter): 30.00 inches Hg (1016.0 mb)
Winds: from the E (100 degrees) at 5 MPH (4 knots; 2.1 m/s)
Visibility: 6 or more miles (10+ km)
Ceiling: ceiling and visibility are OK
Clouds: unknown
Weather: no significant weather observed at this time

METAR text: OMDB 121700Z 10005KT CAVOK 25/12 Q1015 NOSIG
Conditions at: OMDB (DUBAI INTL AIRPO, AE) observed 1700 UTC 12 November 2019
Temperature: 25.0°C (77°F)
Dewpoint: 12.0°C (54°F) [RH = 44%]
Pressure (altimeter): 29.97 inches Hg (1015.0 mb)
Winds: from the E (100 degrees) at 6 MPH (5 knots; 2.6 m/s)
Visibility: 6 or more miles (10+ km)
Ceiling: ceiling and visibility are OK
Clouds: unknown
Weather: no significant weather observed at this time

METAR text: OMDB 121600Z 09004KT CAVOK 26/12 Q1015 NOSIG
Conditions at: OMDB (DUBAI INTL AIRPO, AE) observed 1600 UTC 12 November 2019
Temperature: 26.0°C (79°F)
Dewpoint: 12.0°C (54°F) [RH = 42%]
Pressure (altimeter): 29.97 inches Hg (1015.0 mb)
Winds: from the E (90 degrees) at 5 MPH (4 knots; 2.1 m/s)
Visibility: 6 or more miles (10+ km)
Ceiling: ceiling and visibility are OK
Clouds: unknown
Weather: no significant weather observed at this time

METAR text: OMDB 121500Z 05007KT 030V090 CAVOK 27/11 Q1014 NOSIG
Conditions at: OMDB (DUBAI INTL AIRPO, AE) observed 1500 UTC 12 November 2019
Temperature: 27.0°C (81°F)
Dewpoint: 11.0°C (52°F) [RH = 37%]
Pressure (altimeter): 29.94 inches Hg (1014.0 mb)
Winds: from the NE (50 degrees) at 8 MPH (7 knots; 3.6 m/s)
Visibility: 6 or more miles (10+ km)
Ceiling: ceiling and visibility are OK
Clouds: unknown
Weather: no significant weather observed at this time

METAR text: OMDB 121400Z 02008KT CAVOK 28/11 Q1014 NOSIG
Conditions at: OMDB (DUBAI INTL AIRPO, AE) observed 1400 UTC 12 November 2019
Temperature: 28.0°C (82°F)
Dewpoint: 11.0°C (52°F) [RH = 35%]
Pressure (altimeter): 29.94 inches Hg (1014.0 mb)
Winds: from the NNE (20 degrees) at 9 MPH (8 knots; 4.1 m/s)
Visibility: 6 or more miles (10+ km)
Ceiling: ceiling and visibility are OK
Clouds: unknown
Weather: no significant weather observed at this time

METAR text: OMDB 121300Z 01011KT CAVOK 29/09 Q1013 NOSIG
Conditions at: OMDB (DUBAI INTL AIRPO, AE) observed 1300 UTC 12 November 2019
Temperature: 29.0°C (84°F)
Dewpoint: 9.0°C (48°F) [RH = 29%]
Pressure (altimeter): 29.91 inches Hg (1013.0 mb)
Winds: from the N (10 degrees) at 13 MPH (11 knots; 5.7 m/s)
Visibility: 6 or more miles (10+ km)
Ceiling: ceiling and visibility are OK
Clouds: unknown
Weather: no significant weather observed at this time

METAR text: OMDB 121200Z 36012KT CAVOK 29/09 Q1013 NOSIG
Conditions at: OMDB (DUBAI INTL AIRPO, AE) observed 1200 UTC 12 November 2019
Temperature: 29.0°C (84°F)
Dewpoint: 9.0°C (48°F) [RH = 29%]
Pressure (altimeter): 29.91 inches Hg (1013.0 mb)
Winds: from the N (360 degrees) at 14 MPH (12 knots; 6.2 m/s)
Visibility: 6 or more miles (10+ km)
Ceiling: ceiling and visibility are OK
Clouds: unknown
Weather: no significant weather observed at this time

METAR text: OMDB 121100Z 36011KT 320V050 CAVOK 30/06 Q1013 NOSIG
Conditions at: OMDB (DUBAI INTL AIRPO, AE) observed 1100 UTC 12 November 2019
Temperature: 30.0°C (86°F)
Dewpoint: 6.0°C (43°F) [RH = 22%]
Pressure (altimeter): 29.91 inches Hg (1013.0 mb)
Winds: from the N (360 degrees) at 13 MPH (11 knots; 5.7 m/s)
Visibility: 6 or more miles (10+ km)
Ceiling: ceiling and visibility are OK
Clouds: unknown
Weather: no significant weather observed at this time

METAR text: OMDB 121000Z VRB03KT CAVOK 30/02 Q1014 BECMG 35010KT
Conditions at: OMDB (DUBAI INTL AIRPO, AE) observed 1000 UTC 12 November 2019
Temperature: 30.0°C (86°F)
Dewpoint: 2.0°C (36°F) [RH = 17%]
Pressure (altimeter): 29.94 inches Hg (1014.0 mb)
Winds: variable direction winds at 3 MPH (3 knots; 1.5 m/s)
Visibility: 6 or more miles (10+ km)
Ceiling: ceiling and visibility are OK
Clouds: unknown
Weather: no significant weather observed at this time

METAR text: OMDB 120900Z 12007KT 060V170 CAVOK 30/03 Q1015 NOSIG
Conditions at: OMDB (DUBAI INTL AIRPO, AE) observed 0900 UTC 12 November 2019
Temperature: 30.0°C (86°F)
Dewpoint: 3.0°C (37°F) [RH = 18%]
Pressure (altimeter): 29.97 inches Hg (1015.0 mb)
Winds: from the ESE (120 degrees) at 8 MPH (7 knots; 3.6 m/s)
Visibility: 6 or more miles (10+ km)
Ceiling: ceiling and visibility are OK
Clouds: unknown
Weather: no significant weather observed at this time

Forecast for: OMDB (DUBAI INTL AIRPO, AE)
Text: TAF OMDB 131655Z 1318/1500 09005KT CAVOK
Forecast period: 1800 UTC 13 November 2019 to 0900 UTC 14 November 2019
Forecast type: FROM: standard forecast or significant change
Winds: from the E (90 degrees) at 6 MPH (5 knots; 2.6 m/s)
Visibility: 6 or more miles 10+ km)
Ceiling: unknown
Clouds: missing
Weather: NSW  (no significant weather)
Text: BECMG 1409/1411 35012KT
Forecast period: 0900 to 1600 UTC 14 November 2019
Forecast type: BECOMING: Conditions expected to become as follows by 1100 UTC 14 November 2019
Winds: from the N (350 degrees) at 14 MPH (12 knots; 6.2 m/s)
Visibility: 6 or more miles 10+ km)
Ceiling: unknown
Clouds: missing
Weather: NSW  (no significant weather)
Text: BECMG 1416/1418 12005KT
Forecast period: 1600 UTC 14 November 2019 to 0000 UTC 15 November 2019
Forecast type: BECOMING: Conditions expected to become as follows by 1800 UTC 14 November 2019
Winds: from the ESE (120 degrees) at 6 MPH (5 knots; 2.6 m/s)
Visibility: 6 or more miles 10+ km)
Ceiling: unknown
Clouds: missing
Weather: NSW  (no significant weather)